Time,TemperatureF,DewpointF,PressureIn,WindDirection,WindDirectionDegrees,WindSpeedMPH,WindSpeedGustMPH,Humidity,HourlyPrecipIn,Conditions,Clouds,dailyrainin,SolarRadiationWatts/m^2,SoftwareType,DateUTC
2013-08-02 00:02:00,54.0,52.0,-100.00,South,172,7.0,14.0,93,0.00,,,0.01,0.000000,,2013-08-02 06:02:00,
2013-08-02 00:12:00,54.0,52.0,-100.00,South,172,7.0,14.0,93,0.00,,,0.01,0.000000,,2013-08-02 06:12:00,
2013-08-02 00:22:00,54.0,52.0,-100.00,South,172,7.0,14.0,93,0.00,,,0.01,0.000000,,2013-08-02 06:22:00,
2013-08-02 00:33:00,54.0,52.0,-100.00,South,172,7.0,14.0,93,0.00,,,0.01,0.000000,,2013-08-02 06:33:00,
2013-08-02 01:02:00,52.0,50.0,-100.00,NW,313,2.0,10.0,94,0.00,,,0.01,0.000000,,2013-08-02 07:02:00,
2013-08-02 01:12:00,52.0,50.0,-100.00,NW,313,2.0,10.0,94,0.00,,,0.01,0.000000,,2013-08-02 07:12:00,
2013-08-02 01:22:00,52.0,50.0,-100.00,NW,313,2.0,10.0,94,0.00,,,0.01,0.000000,,2013-08-02 07:22:00,
2013-08-02 01:33:00,52.0,50.0,-100.00,NW,313,2.0,10.0,94,0.00,,,0.01,0.000000,,2013-08-02 07:33:00,
2013-08-02 02:02:00,50.0,48.0,-100.00,NE,42,5.0,7.0,93,0.00,,,0.01,0.000000,,2013-08-02 08:02:00,
2013-08-02 02:12:00,50.0,48.0,-100.00,NE,42,5.0,7.0,93,0.00,,,0.01,0.000000,,2013-08-02 08:12:00,
2013-08-02 02:22:00,50.0,48.0,-100.00,NE,42,5.0,7.0,93,0.00,,,0.01,0.000000,,2013-08-02 08:22:00,
2013-08-02 02:33:00,50.0,48.0,-100.00,NE,42,5.0,7.0,93,0.00,,,0.01,0.000000,,2013-08-02 08:33:00,
2013-08-02 05:02:00,52.0,51.0,-100.00,South,188,4.0,7.0,97,-99.99,,,0.01,0.000000,,2013-08-02 11:02:00,
2013-08-02 05:12:00,52.0,51.0,-100.00,South,188,4.0,7.0,97,-99.99,,,0.01,0.000000,,2013-08-02 11:12:00,
2013-08-02 05:23:00,52.0,51.0,-100.00,South,188,4.0,7.0,97,-99.99,,,0.01,0.000000,,2013-08-02 11:23:00,
2013-08-02 05:32:00,52.0,51.0,-100.00,South,188,4.0,7.0,97,-99.99,,,0.01,0.000000,,2013-08-02 11:32:00,
2013-08-02 06:02:00,52.0,51.0,-100.00,SSW,193,2.0,9.0,97,0.00,,,0.01,0.000000,,2013-08-02 12:02:00,
2013-08-02 06:12:00,52.0,51.0,-100.00,SSW,193,2.0,9.0,97,0.00,,,0.01,0.000000,,2013-08-02 12:12:00,
2013-08-02 06:22:00,52.0,51.0,-100.00,SSW,193,2.0,9.0,97,0.00,,,0.01,0.000000,,2013-08-02 12:22:00,
2013-08-02 06:32:00,52.0,51.0,-100.00,SSW,193,2.0,9.0,97,0.00,,,0.01,0.000000,,2013-08-02 12:32:00,
2013-08-02 07:02:00,51.0,50.0,-100.00,ENE,66,3.0,5.0,97,0.00,,,0.01,5.000000,,2013-08-02 13:02:00,
2013-08-02 07:12:00,51.0,50.0,-100.00,ENE,66,3.0,5.0,97,0.00,,,0.01,5.000000,,2013-08-02 13:12:00,
2013-08-02 07:22:00,51.0,50.0,-100.00,ENE,66,3.0,5.0,97,0.00,,,0.01,5.000000,,2013-08-02 13:22:00,
2013-08-02 07:33:00,51.0,50.0,-100.00,ENE,66,3.0,5.0,97,0.00,,,0.01,5.000000,,2013-08-02 13:33:00,
2013-08-02 08:02:00,55.0,52.0,-100.00,East,101,1.0,6.0,88,0.00,,,0.01,80.000000,,2013-08-02 14:02:00,
2013-08-02 08:12:00,55.0,52.0,-100.00,East,101,1.0,6.0,88,0.00,,,0.01,80.000000,,2013-08-02 14:12:00,
2013-08-02 08:22:00,55.0,52.0,-100.00,East,101,1.0,6.0,88,0.00,,,0.01,80.000000,,2013-08-02 14:22:00,
2013-08-02 08:32:00,55.0,52.0,-100.00,East,101,1.0,6.0,88,0.00,,,0.01,80.000000,,2013-08-02 14:32:00,
2013-08-02 09:03:00,61.0,52.0,-100.00,SE,145,5.0,9.0,71,0.00,,,-99.99,284.000000,,2013-08-02 15:03:00,
2013-08-02 09:12:00,61.0,52.0,-100.00,SE,145,5.0,9.0,71,0.00,,,-99.99,284.000000,,2013-08-02 15:12:00,
2013-08-02 09:22:00,61.0,52.0,-100.00,SE,145,5.0,9.0,71,0.00,,,-99.99,284.000000,,2013-08-02 15:22:00,
2013-08-02 09:32:00,61.0,52.0,-100.00,SE,145,5.0,9.0,71,0.00,,,-99.99,284.000000,,2013-08-02 15:32:00,
2013-08-02 10:02:00,63.0,51.0,-100.00,South,173,7.0,12.0,64,0.00,,,-99.99,456.000000,,2013-08-02 16:02:00,
2013-08-02 10:12:00,63.0,51.0,-100.00,South,173,7.0,12.0,64,0.00,,,-99.99,456.000000,,2013-08-02 16:12:00,
2013-08-02 10:22:00,63.0,51.0,-100.00,South,173,7.0,12.0,64,0.00,,,-99.99,456.000000,,2013-08-02 16:22:00,
2013-08-02 10:32:00,63.0,51.0,-100.00,South,173,7.0,12.0,64,0.00,,,-99.99,456.000000,,2013-08-02 16:32:00,
2013-08-02 11:02:00,67.0,49.0,-100.00,SSE,159,8.0,13.0,53,0.00,,,0.01,646.000000,,2013-08-02 17:02:00,
2013-08-02 11:12:00,67.0,49.0,-100.00,SSE,159,8.0,13.0,53,0.00,,,0.01,646.000000,,2013-08-02 17:12:00,
2013-08-02 11:22:00,67.0,49.0,-100.00,SSE,159,8.0,13.0,53,0.00,,,0.01,646.000000,,2013-08-02 17:22:00,
2013-08-02 11:35:00,67.0,49.0,-100.00,SSE,159,8.0,13.0,53,0.00,,,0.01,646.000000,,2013-08-02 17:35:00,
2013-08-02 12:02:00,69.0,50.0,-100.00,SSE,160,9.0,16.0,51,0.00,,,0.01,788.000000,,2013-08-02 18:02:00,
2013-08-02 12:12:00,69.0,50.0,-100.00,SSE,160,9.0,16.0,51,0.00,,,0.01,788.000000,,2013-08-02 18:12:00,
2013-08-02 12:32:00,69.0,50.0,-100.00,SSE,160,9.0,16.0,51,0.00,,,0.01,788.000000,,2013-08-02 18:32:00,
2013-08-02 13:02:00,74.0,49.0,-100.00,SSE,160,8.0,15.0,41,0.00,,,0.01,940.000000,,2013-08-02 19:02:00,
2013-08-02 13:12:00,74.0,49.0,-100.00,SSE,160,8.0,15.0,41,0.00,,,0.01,940.000000,,2013-08-02 19:12:00,
2013-08-02 13:22:00,74.0,49.0,-100.00,SSE,160,8.0,15.0,41,0.00,,,0.01,940.000000,,2013-08-02 19:22:00,
2013-08-02 13:32:00,74.0,49.0,-100.00,SSE,160,8.0,15.0,41,0.00,,,0.01,940.000000,,2013-08-02 19:32:00,
2013-08-02 14:02:00,77.0,47.0,-100.00,SSE,167,9.0,16.0,35,0.00,,,0.01,991.000000,,2013-08-02 20:02:00,
2013-08-02 14:12:00,77.0,47.0,-100.00,SSE,167,9.0,16.0,35,0.00,,,0.01,991.000000,,2013-08-02 20:12:00,
2013-08-02 14:22:00,77.0,47.0,-100.00,SSE,167,9.0,16.0,35,0.00,,,0.01,991.000000,,2013-08-02 20:22:00,
2013-08-02 14:32:00,77.0,47.0,-100.00,SSE,167,9.0,16.0,35,0.00,,,0.01,991.000000,,2013-08-02 20:32:00,
2013-08-02 15:02:00,77.0,44.0,-100.00,SE,133,7.0,14.0,31,0.00,,,0.01,731.000000,,2013-08-02 21:02:00,
2013-08-02 15:12:00,77.0,44.0,-100.00,SE,133,7.0,14.0,31,0.00,,,0.01,731.000000,,2013-08-02 21:12:00,
2013-08-02 15:22:00,77.0,44.0,-100.00,SE,133,7.0,14.0,31,0.00,,,0.01,731.000000,,2013-08-02 21:22:00,
2013-08-02 15:32:00,77.0,44.0,-100.00,SE,133,7.0,14.0,31,0.00,,,0.01,731.000000,,2013-08-02 21:32:00,
2013-08-02 16:02:00,83.0,40.0,-100.00,WSW,248,5.0,15.0,22,0.00,,,0.01,943.000000,,2013-08-02 22:02:00,
2013-08-02 16:12:00,83.0,40.0,-100.00,WSW,248,5.0,15.0,22,0.00,,,0.01,943.000000,,2013-08-02 22:12:00,
2013-08-02 16:22:00,83.0,40.0,-100.00,WSW,248,5.0,15.0,22,0.00,,,0.01,943.000000,,2013-08-02 22:22:00,
2013-08-02 17:02:00,81.0,39.0,-100.00,North,358,11.0,18.0,22,0.00,,,0.01,854.000000,,2013-08-02 23:02:00,
2013-08-02 17:12:00,81.0,39.0,-100.00,North,358,11.0,18.0,22,0.00,,,0.01,854.000000,,2013-08-02 23:12:00,
2013-08-02 17:22:00,81.0,39.0,-100.00,North,358,11.0,18.0,22,0.00,,,0.01,854.000000,,2013-08-02 23:22:00,
2013-08-02 17:32:00,81.0,39.0,-100.00,North,358,11.0,18.0,22,0.00,,,0.01,854.000000,,2013-08-02 23:32:00,
2013-08-02 18:02:00,76.0,41.0,-100.00,SSE,147,13.0,20.0,29,0.00,,,0.01,168.000000,,2013-08-03 00:02:00,
2013-08-02 18:12:00,76.0,41.0,-100.00,SSE,147,13.0,20.0,29,0.00,,,0.01,168.000000,,2013-08-03 00:12:00,
2013-08-02 18:22:00,76.0,41.0,-100.00,SSE,147,13.0,20.0,29,0.00,,,0.01,168.000000,,2013-08-03 00:22:00,
2013-08-02 18:33:00,76.0,41.0,-100.00,SSE,147,13.0,20.0,29,0.00,,,0.01,168.000000,,2013-08-03 00:33:00,
2013-08-02 19:02:00,71.0,47.0,-100.00,SE,130,13.0,20.0,42,0.00,,,0.01,75.000000,,2013-08-03 01:02:00,
2013-08-02 19:12:00,71.0,47.0,-100.00,SE,130,13.0,20.0,42,0.00,,,0.01,75.000000,,2013-08-03 01:12:00,
2013-08-02 19:22:00,71.0,47.0,-100.00,SE,130,13.0,20.0,42,0.00,,,0.01,75.000000,,2013-08-03 01:22:00,
2013-08-02 19:32:00,71.0,47.0,-100.00,SE,130,13.0,20.0,42,0.00,,,0.01,75.000000,,2013-08-03 01:32:00,
2013-08-02 20:02:00,70.0,46.0,-100.00,SSE,150,8.0,21.0,42,0.00,,,0.01,48.000000,,2013-08-03 02:02:00,
2013-08-02 20:12:00,70.0,46.0,-100.00,SSE,150,8.0,21.0,42,0.00,,,0.01,48.000000,,2013-08-03 02:12:00,
2013-08-02 20:22:00,70.0,46.0,-100.00,SSE,150,8.0,21.0,42,0.00,,,0.01,48.000000,,2013-08-03 02:22:00,
2013-08-02 20:32:00,70.0,46.0,-100.00,SSE,150,8.0,21.0,42,0.00,,,0.01,48.000000,,2013-08-03 02:32:00,
2013-08-02 21:02:00,65.0,45.0,-100.00,SSE,167,4.0,12.0,49,0.00,,,0.01,7.000000,,2013-08-03 03:02:00,
2013-08-02 21:12:00,65.0,45.0,-100.00,SSE,167,4.0,12.0,49,0.00,,,0.01,7.000000,,2013-08-03 03:12:00,
2013-08-02 21:22:00,65.0,45.0,-100.00,SSE,167,4.0,12.0,49,0.00,,,0.01,7.000000,,2013-08-03 03:22:00,
2013-08-02 21:32:00,65.0,45.0,-100.00,SSE,167,4.0,12.0,49,0.00,,,0.01,7.000000,,2013-08-03 03:32:00,
2013-08-02 22:02:00,63.0,45.0,-100.00,ESE,110,6.0,10.0,51,0.00,,,0.00,0.000000,,2013-08-03 04:02:00,
2013-08-02 22:12:00,63.0,45.0,-100.00,ESE,110,6.0,10.0,51,0.00,,,0.00,0.000000,,2013-08-03 04:12:00,
2013-08-02 22:22:00,63.0,45.0,-100.00,ESE,110,6.0,10.0,51,0.00,,,0.00,0.000000,,2013-08-03 04:22:00,
2013-08-02 22:32:00,63.0,45.0,-100.00,ESE,110,6.0,10.0,51,0.00,,,0.00,0.000000,,2013-08-03 04:32:00,
2013-08-02 23:02:00,60.0,45.0,-100.00,NNW,348,3.0,7.0,57,0.00,,,0.00,0.000000,,2013-08-03 05:02:00,
2013-08-02 23:12:00,60.0,45.0,-100.00,NNW,348,3.0,7.0,57,0.00,,,0.00,0.000000,,2013-08-03 05:12:00,
2013-08-02 23:22:00,60.0,45.0,-100.00,NNW,348,3.0,7.0,57,0.00,,,0.00,0.000000,,2013-08-03 05:22:00,
2013-08-02 23:32:00,60.0,45.0,-100.00,NNW,348,3.0,7.0,57,0.00,,,0.00,0.000000,,2013-08-03 05:32:00,